sensor_id;sensor_type;location;lat;lon;timestamp;P1;durP1;ratioP1;P2;durP2;ratioP2
705;SDS011;21234;48.690;9.016;2023-02-28T00:00:24;3.50;;;2.10;;
705;SDS011;21234;48.690;9.016;2023-02-28T00:02:51;3.03;;;1.53;;
705;SDS011;21234;48.690;9.016;2023-02-28T00:05:19;3.47;;;1.80;;
705;SDS011;21234;48.690;9.016;2023-02-28T00:07:48;2.07;;;1.60;;
705;SDS011;21234;48.690;9.016;2023-02-28T00:10:16;2.40;;;2.13;;
705;SDS011;21234;48.690;9.016;2023-02-28T00:12:45;2.50;;;2.30;;
705;SDS011;21234;48.690;9.016;2023-02-28T00:15:13;2.70;;;1.60;;
705;SDS011;21234;48.690;9.016;2023-02-28T00:17:39;2.87;;;1.70;;
705;SDS011;21234;48.690;9.016;2023-02-28T00:20:06;1.70;;;1.57;;
705;SDS011;21234;48.690;9.016;2023-02-28T00:22:38;1.90;;;1.80;;
705;SDS011;21234;48.690;9.016;2023-02-28T00:25:06;3.40;;;1.93;;
705;SDS011;21234;48.690;9.016;2023-02-28T00:27:34;1.60;;;1.40;;
705;SDS011;21234;48.690;9.016;2023-02-28T00:30:01;2.30;;;1.60;;
705;SDS011;21234;48.690;9.016;2023-02-28T00:32:28;2.13;;;1.80;;
705;SDS011;21234;48.690;9.016;2023-02-28T00:34:54;3.13;;;2.17;;
705;SDS011;21234;48.690;9.016;2023-02-28T00:37:21;2.63;;;2.17;;
705;SDS011;21234;48.690;9.016;2023-02-28T00:39:50;3.53;;;1.87;;
705;SDS011;21234;48.690;9.016;2023-02-28T00:42:16;2.13;;;1.77;;
705;SDS011;21234;48.690;9.016;2023-02-28T00:44:43;2.27;;;2.07;;
705;SDS011;21234;48.690;9.016;2023-02-28T00:47:10;2.63;;;1.93;;
705;SDS011;21234;48.690;9.016;2023-02-28T00:49:37;1.77;;;1.67;;
705;SDS011;21234;48.690;9.016;2023-02-28T00:52:04;3.07;;;2.07;;
705;SDS011;21234;48.690;9.016;2023-02-28T00:54:31;2.53;;;1.87;;
705;SDS011;21234;48.690;9.016;2023-02-28T00:56:59;4.13;;;1.90;;
705;SDS011;21234;48.690;9.016;2023-02-28T00:59:26;2.23;;;1.50;;
705;SDS011;21234;48.690;9.016;2023-02-28T01:01:53;3.63;;;1.90;;
705;SDS011;21234;48.690;9.016;2023-02-28T01:04:19;2.23;;;1.80;;
705;SDS011;21234;48.690;9.016;2023-02-28T01:06:46;1.63;;;1.50;;
705;SDS011;21234;48.690;9.016;2023-02-28T01:09:13;4.70;;;2.00;;
705;SDS011;21234;48.690;9.016;2023-02-28T01:11:40;3.30;;;1.77;;
705;SDS011;21234;48.690;9.016;2023-02-28T01:14:11;3.10;;;1.90;;
705;SDS011;21234;48.690;9.016;2023-02-28T01:16:39;2.33;;;1.70;;
705;SDS011;21234;48.690;9.016;2023-02-28T01:19:06;2.60;;;2.00;;
705;SDS011;21234;48.690;9.016;2023-02-28T01:21:32;2.53;;;2.03;;
705;SDS011;21234;48.690;9.016;2023-02-28T01:24:00;3.10;;;2.37;;
705;SDS011;21234;48.690;9.016;2023-02-28T01:26:27;1.67;;;1.30;;
705;SDS011;21234;48.690;9.016;2023-02-28T01:28:54;1.47;;;1.37;;
705;SDS011;21234;48.690;9.016;2023-02-28T01:31:22;2.17;;;2.00;;
705;SDS011;21234;48.690;9.016;2023-02-28T01:33:49;1.73;;;1.63;;
705;SDS011;21234;48.690;9.016;2023-02-28T01:36:16;4.30;;;1.80;;
705;SDS011;21234;48.690;9.016;2023-02-28T01:38:44;3.63;;;1.87;;
705;SDS011;21234;48.690;9.016;2023-02-28T01:41:14;3.03;;;1.63;;
705;SDS011;21234;48.690;9.016;2023-02-28T01:43:53;3.20;;;2.10;;
705;SDS011;21234;48.690;9.016;2023-02-28T01:46:26;2.43;;;2.10;;
705;SDS011;21234;48.690;9.016;2023-02-28T01:48:54;5.43;;;2.20;;
705;SDS011;21234;48.690;9.016;2023-02-28T01:51:25;4.97;;;3.00;;
705;SDS011;21234;48.690;9.016;2023-02-28T01:53:55;3.47;;;2.20;;
705;SDS011;21234;48.690;9.016;2023-02-28T01:56:27;2.70;;;1.70;;
705;SDS011;21234;48.690;9.016;2023-02-28T01:58:56;2.43;;;2.23;;
705;SDS011;21234;48.690;9.016;2023-02-28T02:01:24;2.50;;;2.30;;
705;SDS011;21234;48.690;9.016;2023-02-28T02:03:54;4.53;;;2.13;;
705;SDS011;21234;48.690;9.016;2023-02-28T02:06:22;2.23;;;2.03;;
705;SDS011;21234;48.690;9.016;2023-02-28T02:08:50;4.10;;;2.20;;
705;SDS011;21234;48.690;9.016;2023-02-28T02:11:19;2.63;;;2.40;;
705;SDS011;21234;48.690;9.016;2023-02-28T02:13:57;3.50;;;2.83;;
705;SDS011;21234;48.690;9.016;2023-02-28T02:16:49;2.27;;;1.93;;
705;SDS011;21234;48.690;9.016;2023-02-28T02:19:33;3.77;;;1.70;;
705;SDS011;21234;48.690;9.016;2023-02-28T02:22:21;4.90;;;2.13;;
705;SDS011;21234;48.690;9.016;2023-02-28T02:25:10;2.90;;;2.20;;
705;SDS011;21234;48.690;9.016;2023-02-28T02:27:50;3.27;;;2.37;;
705;SDS011;21234;48.690;9.016;2023-02-28T02:30:48;5.80;;;3.63;;
705;SDS011;21234;48.690;9.016;2023-02-28T02:33:49;3.70;;;2.53;;
705;SDS011;21234;48.690;9.016;2023-02-28T02:36:35;3.63;;;2.17;;
705;SDS011;21234;48.690;9.016;2023-02-28T02:39:06;5.33;;;2.10;;
705;SDS011;21234;48.690;9.016;2023-02-28T02:41:44;4.80;;;2.60;;
705;SDS011;21234;48.690;9.016;2023-02-28T02:44:15;2.17;;;1.97;;
705;SDS011;21234;48.690;9.016;2023-02-28T02:46:47;3.67;;;2.20;;
705;SDS011;21234;48.690;9.016;2023-02-28T02:49:21;4.17;;;2.43;;
705;SDS011;21234;48.690;9.016;2023-02-28T02:51:50;2.33;;;2.13;;
705;SDS011;21234;48.690;9.016;2023-02-28T02:54:20;3.67;;;2.67;;
705;SDS011;21234;48.690;9.016;2023-02-28T02:56:53;4.83;;;3.07;;
705;SDS011;21234;48.690;9.016;2023-02-28T02:59:23;5.60;;;2.10;;
705;SDS011;21234;48.690;9.016;2023-02-28T03:01:52;4.10;;;3.00;;
705;SDS011;21234;48.690;9.016;2023-02-28T03:04:23;4.67;;;2.67;;
705;SDS011;21234;48.690;9.016;2023-02-28T03:06:52;5.20;;;3.23;;
705;SDS011;21234;48.690;9.016;2023-02-28T03:09:20;7.50;;;2.83;;
705;SDS011;21234;48.690;9.016;2023-02-28T03:11:47;3.23;;;2.33;;
705;SDS011;21234;48.690;9.016;2023-02-28T03:14:24;3.80;;;2.87;;
705;SDS011;21234;48.690;9.016;2023-02-28T03:17:21;4.50;;;2.57;;
705;SDS011;21234;48.690;9.016;2023-02-28T03:20:09;2.90;;;2.63;;
705;SDS011;21234;48.690;9.016;2023-02-28T03:22:45;3.90;;;2.40;;
705;SDS011;21234;48.690;9.016;2023-02-28T03:25:20;3.20;;;2.90;;
705;SDS011;21234;48.690;9.016;2023-02-28T03:27:58;3.50;;;3.20;;
705;SDS011;21234;48.690;9.016;2023-02-28T03:30:31;6.23;;;4.10;;
705;SDS011;21234;48.690;9.016;2023-02-28T03:33:03;4.00;;;2.60;;
705;SDS011;21234;48.690;9.016;2023-02-28T03:35:37;4.63;;;2.90;;
705;SDS011;21234;48.690;9.016;2023-02-28T03:38:07;5.70;;;2.80;;
705;SDS011;21234;48.690;9.016;2023-02-28T03:40:41;6.10;;;3.50;;
705;SDS011;21234;48.690;9.016;2023-02-28T03:43:12;4.07;;;3.03;;
705;SDS011;21234;48.690;9.016;2023-02-28T03:45:44;3.00;;;2.80;;
705;SDS011;21234;48.690;9.016;2023-02-28T03:48:15;3.77;;;2.80;;
705;SDS011;21234;48.690;9.016;2023-02-28T03:50:50;3.77;;;2.70;;
705;SDS011;21234;48.690;9.016;2023-02-28T03:53:21;4.07;;;3.30;;
705;SDS011;21234;48.690;9.016;2023-02-28T03:55:52;5.30;;;3.80;;
705;SDS011;21234;48.690;9.016;2023-02-28T03:58:24;3.13;;;2.80;;
705;SDS011;21234;48.690;9.016;2023-02-28T04:00:56;2.97;;;2.67;;
705;SDS011;21234;48.690;9.016;2023-02-28T04:03:33;4.50;;;3.30;;
705;SDS011;21234;48.690;9.016;2023-02-28T04:06:03;6.60;;;3.30;;
705;SDS011;21234;48.690;9.016;2023-02-28T04:08:31;3.73;;;3.43;;
705;SDS011;21234;48.690;9.016;2023-02-28T04:11:00;5.00;;;3.30;;
705;SDS011;21234;48.690;9.016;2023-02-28T04:13:30;2.90;;;2.63;;
705;SDS011;21234;48.690;9.016;2023-02-28T04:15:57;5.73;;;3.20;;
705;SDS011;21234;48.690;9.016;2023-02-28T04:18:24;4.83;;;3.70;;
705;SDS011;21234;48.690;9.016;2023-02-28T04:20:51;6.13;;;3.37;;
705;SDS011;21234;48.690;9.016;2023-02-28T04:23:19;4.43;;;2.90;;
705;SDS011;21234;48.690;9.016;2023-02-28T04:25:46;3.87;;;2.67;;
705;SDS011;21234;48.690;9.016;2023-02-28T04:28:12;3.90;;;3.00;;
705;SDS011;21234;48.690;9.016;2023-02-28T04:30:39;3.70;;;3.37;;
705;SDS011;21234;48.690;9.016;2023-02-28T04:33:05;5.10;;;3.40;;
705;SDS011;21234;48.690;9.016;2023-02-28T04:35:32;4.93;;;3.40;;
705;SDS011;21234;48.690;9.016;2023-02-28T04:37:59;4.80;;;3.87;;
705;SDS011;21234;48.690;9.016;2023-02-28T04:40:27;6.03;;;3.67;;
705;SDS011;21234;48.690;9.016;2023-02-28T04:42:54;6.10;;;3.70;;
705;SDS011;21234;48.690;9.016;2023-02-28T04:45:21;3.63;;;3.30;;
705;SDS011;21234;48.690;9.016;2023-02-28T04:47:47;4.07;;;3.07;;
705;SDS011;21234;48.690;9.016;2023-02-28T04:50:14;3.57;;;3.27;;
705;SDS011;21234;48.690;9.016;2023-02-28T04:52:41;6.10;;;3.40;;
705;SDS011;21234;48.690;9.016;2023-02-28T04:55:08;3.20;;;2.60;;
705;SDS011;21234;48.690;9.016;2023-02-28T04:57:36;6.57;;;3.43;;
705;SDS011;21234;48.690;9.016;2023-02-28T05:00:03;4.50;;;4.10;;
705;SDS011;21234;48.690;9.016;2023-02-28T05:02:36;4.30;;;3.23;;
705;SDS011;21234;48.690;9.016;2023-02-28T05:05:04;5.27;;;3.87;;
705;SDS011;21234;48.690;9.016;2023-02-28T05:07:31;5.67;;;4.23;;
705;SDS011;21234;48.690;9.016;2023-02-28T05:09:58;5.23;;;4.03;;
705;SDS011;21234;48.690;9.016;2023-02-28T05:12:25;6.03;;;4.00;;
705;SDS011;21234;48.690;9.016;2023-02-28T05:14:53;4.17;;;3.67;;
705;SDS011;21234;48.690;9.016;2023-02-28T05:17:20;4.50;;;3.17;;
705;SDS011;21234;48.690;9.016;2023-02-28T05:19:46;5.77;;;3.97;;
705;SDS011;21234;48.690;9.016;2023-02-28T05:22:13;3.33;;;3.00;;
705;SDS011;21234;48.690;9.016;2023-02-28T05:24:41;6.70;;;3.70;;
705;SDS011;21234;48.690;9.016;2023-02-28T05:27:08;7.57;;;4.13;;
705;SDS011;21234;48.690;9.016;2023-02-28T05:29:35;4.60;;;4.10;;
705;SDS011;21234;48.690;9.016;2023-02-28T05:32:08;8.70;;;4.70;;
705;SDS011;21234;48.690;9.016;2023-02-28T05:34:35;4.30;;;3.00;;
705;SDS011;21234;48.690;9.016;2023-02-28T05:37:02;7.27;;;4.40;;
705;SDS011;21234;48.690;9.016;2023-02-28T05:39:29;3.70;;;2.70;;
705;SDS011;21234;48.690;9.016;2023-02-28T05:41:56;5.80;;;4.23;;
705;SDS011;21234;48.690;9.016;2023-02-28T05:44:23;4.37;;;3.57;;
705;SDS011;21234;48.690;9.016;2023-02-28T05:46:50;9.50;;;4.50;;
705;SDS011;21234;48.690;9.016;2023-02-28T05:49:18;6.57;;;4.20;;
705;SDS011;21234;48.690;9.016;2023-02-28T05:51:45;5.73;;;4.77;;
705;SDS011;21234;48.690;9.016;2023-02-28T05:54:12;7.47;;;4.57;;
705;SDS011;21234;48.690;9.016;2023-02-28T05:56:38;4.83;;;4.33;;
705;SDS011;21234;48.690;9.016;2023-02-28T05:59:05;10.50;;;4.70;;
705;SDS011;21234;48.690;9.016;2023-02-28T06:01:33;7.13;;;4.20;;
705;SDS011;21234;48.690;9.016;2023-02-28T06:04:02;5.93;;;3.60;;
705;SDS011;21234;48.690;9.016;2023-02-28T06:06:31;5.20;;;3.70;;
705;SDS011;21234;48.690;9.016;2023-02-28T06:08:59;6.53;;;4.63;;
705;SDS011;21234;48.690;9.016;2023-02-28T06:11:26;8.53;;;4.00;;
705;SDS011;21234;48.690;9.016;2023-02-28T06:13:53;9.53;;;5.17;;
705;SDS011;21234;48.690;9.016;2023-02-28T06:16:21;8.83;;;4.93;;
705;SDS011;21234;48.690;9.016;2023-02-28T06:18:48;4.13;;;3.57;;
705;SDS011;21234;48.690;9.016;2023-02-28T06:21:15;4.73;;;3.80;;
705;SDS011;21234;48.690;9.016;2023-02-28T06:23:43;6.27;;;4.93;;
705;SDS011;21234;48.690;9.016;2023-02-28T06:26:10;5.77;;;4.43;;
705;SDS011;21234;48.690;9.016;2023-02-28T06:28:37;7.57;;;4.10;;
705;SDS011;21234;48.690;9.016;2023-02-28T06:31:07;8.07;;;4.70;;
705;SDS011;21234;48.690;9.016;2023-02-28T06:33:34;7.23;;;4.50;;
705;SDS011;21234;48.690;9.016;2023-02-28T06:36:01;12.13;;;5.70;;
705;SDS011;21234;48.690;9.016;2023-02-28T06:38:29;7.70;;;4.30;;
705;SDS011;21234;48.690;9.016;2023-02-28T06:40:58;6.53;;;4.17;;
705;SDS011;21234;48.690;9.016;2023-02-28T06:43:27;6.67;;;4.40;;
705;SDS011;21234;48.690;9.016;2023-02-28T06:45:55;5.67;;;4.07;;
705;SDS011;21234;48.690;9.016;2023-02-28T06:48:22;8.60;;;4.23;;
705;SDS011;21234;48.690;9.016;2023-02-28T06:50:49;5.43;;;3.87;;
705;SDS011;21234;48.690;9.016;2023-02-28T06:53:15;8.80;;;4.60;;
705;SDS011;21234;48.690;9.016;2023-02-28T06:55:42;9.87;;;4.90;;
705;SDS011;21234;48.690;9.016;2023-02-28T06:58:11;8.63;;;4.97;;
705;SDS011;21234;48.690;9.016;2023-02-28T07:00:40;9.23;;;4.90;;
705;SDS011;21234;48.690;9.016;2023-02-28T07:03:07;7.47;;;4.17;;
705;SDS011;21234;48.690;9.016;2023-02-28T07:05:34;4.40;;;3.97;;
705;SDS011;21234;48.690;9.016;2023-02-28T07:08:01;8.30;;;4.60;;
705;SDS011;21234;48.690;9.016;2023-02-28T07:10:28;5.83;;;4.50;;
705;SDS011;21234;48.690;9.016;2023-02-28T07:12:55;5.57;;;4.50;;
705;SDS011;21234;48.690;9.016;2023-02-28T07:15:23;7.27;;;5.40;;
705;SDS011;21234;48.690;9.016;2023-02-28T07:17:50;6.90;;;5.03;;
705;SDS011;21234;48.690;9.016;2023-02-28T07:20:17;7.83;;;4.33;;
705;SDS011;21234;48.690;9.016;2023-02-28T07:22:43;7.23;;;4.90;;
705;SDS011;21234;48.690;9.016;2023-02-28T07:25:10;6.03;;;4.27;;
705;SDS011;21234;48.690;9.016;2023-02-28T07:27:37;11.93;;;5.60;;
705;SDS011;21234;48.690;9.016;2023-02-28T07:30:04;8.30;;;4.53;;
705;SDS011;21234;48.690;9.016;2023-02-28T07:32:33;7.07;;;4.70;;
705;SDS011;21234;48.690;9.016;2023-02-28T07:35:02;6.47;;;4.70;;
705;SDS011;21234;48.690;9.016;2023-02-28T07:37:29;9.03;;;5.63;;
705;SDS011;21234;48.690;9.016;2023-02-28T07:40:01;8.07;;;5.30;;
705;SDS011;21234;48.690;9.016;2023-02-28T07:42:31;12.20;;;5.90;;
705;SDS011;21234;48.690;9.016;2023-02-28T07:44:58;8.60;;;5.97;;
705;SDS011;21234;48.690;9.016;2023-02-28T07:47:25;8.00;;;6.10;;
705;SDS011;21234;48.690;9.016;2023-02-28T07:49:53;6.47;;;4.93;;
705;SDS011;21234;48.690;9.016;2023-02-28T07:52:19;7.17;;;4.50;;
705;SDS011;21234;48.690;9.016;2023-02-28T07:54:48;8.40;;;5.70;;
705;SDS011;21234;48.690;9.016;2023-02-28T07:57:15;10.70;;;6.33;;
705;SDS011;21234;48.690;9.016;2023-02-28T07:59:42;10.60;;;6.40;;
705;SDS011;21234;48.690;9.016;2023-02-28T08:02:09;5.50;;;5.00;;
705;SDS011;21234;48.690;9.016;2023-02-28T08:04:38;8.00;;;5.23;;
705;SDS011;21234;48.690;9.016;2023-02-28T08:07:06;7.37;;;5.30;;
705;SDS011;21234;48.690;9.016;2023-02-28T08:09:34;7.60;;;6.30;;
705;SDS011;21234;48.690;9.016;2023-02-28T08:12:01;8.10;;;6.83;;
705;SDS011;21234;48.690;9.016;2023-02-28T08:14:28;9.70;;;6.30;;
705;SDS011;21234;48.690;9.016;2023-02-28T08:16:54;7.53;;;5.63;;
705;SDS011;21234;48.690;9.016;2023-02-28T08:19:21;7.90;;;5.57;;
705;SDS011;21234;48.690;9.016;2023-02-28T08:21:48;7.17;;;5.57;;
705;SDS011;21234;48.690;9.016;2023-02-28T08:24:16;7.63;;;6.20;;
705;SDS011;21234;48.690;9.016;2023-02-28T08:26:42;11.83;;;6.27;;
705;SDS011;21234;48.690;9.016;2023-02-28T08:29:09;9.13;;;6.30;;
705;SDS011;21234;48.690;9.016;2023-02-28T08:31:37;6.03;;;5.33;;
705;SDS011;21234;48.690;9.016;2023-02-28T08:34:05;9.30;;;6.40;;
705;SDS011;21234;48.690;9.016;2023-02-28T08:36:32;8.80;;;5.67;;
705;SDS011;21234;48.690;9.016;2023-02-28T08:38:59;8.83;;;6.47;;
705;SDS011;21234;48.690;9.016;2023-02-28T08:41:27;9.50;;;7.07;;
705;SDS011;21234;48.690;9.016;2023-02-28T08:43:53;8.43;;;5.67;;
705;SDS011;21234;48.690;9.016;2023-02-28T08:46:20;7.80;;;5.70;;
705;SDS011;21234;48.690;9.016;2023-02-28T08:48:47;7.70;;;5.37;;
705;SDS011;21234;48.690;9.016;2023-02-28T08:51:17;8.27;;;5.90;;
705;SDS011;21234;48.690;9.016;2023-02-28T08:53:51;9.17;;;5.90;;
705;SDS011;21234;48.690;9.016;2023-02-28T08:56:18;8.70;;;5.87;;
705;SDS011;21234;48.690;9.016;2023-02-28T08:58:47;7.33;;;5.53;;
705;SDS011;21234;48.690;9.016;2023-02-28T09:01:16;10.97;;;5.70;;
705;SDS011;21234;48.690;9.016;2023-02-28T09:03:44;11.70;;;8.10;;
705;SDS011;21234;48.690;9.016;2023-02-28T09:06:12;9.73;;;6.73;;
705;SDS011;21234;48.690;9.016;2023-02-28T09:08:40;7.47;;;6.07;;
705;SDS011;21234;48.690;9.016;2023-02-28T09:11:07;11.67;;;6.53;;
705;SDS011;21234;48.690;9.016;2023-02-28T09:13:35;10.30;;;7.47;;
705;SDS011;21234;48.690;9.016;2023-02-28T09:16:05;8.93;;;6.27;;
705;SDS011;21234;48.690;9.016;2023-02-28T09:18:34;12.43;;;9.17;;
705;SDS011;21234;48.690;9.016;2023-02-28T09:21:02;7.60;;;5.60;;
705;SDS011;21234;48.690;9.016;2023-02-28T09:23:29;7.83;;;5.47;;
705;SDS011;21234;48.690;9.016;2023-02-28T09:25:56;8.00;;;6.27;;
705;SDS011;21234;48.690;9.016;2023-02-28T09:28:23;9.03;;;6.50;;
705;SDS011;21234;48.690;9.016;2023-02-28T09:30:50;7.80;;;6.90;;
705;SDS011;21234;48.690;9.016;2023-02-28T09:33:20;8.27;;;6.20;;
705;SDS011;21234;48.690;9.016;2023-02-28T09:35:48;10.43;;;6.97;;
705;SDS011;21234;48.690;9.016;2023-02-28T09:38:15;7.73;;;5.80;;
705;SDS011;21234;48.690;9.016;2023-02-28T09:40:45;8.30;;;6.60;;
705;SDS011;21234;48.690;9.016;2023-02-28T09:43:16;13.63;;;7.50;;
705;SDS011;21234;48.690;9.016;2023-02-28T09:45:47;10.63;;;6.87;;
705;SDS011;21234;48.690;9.016;2023-02-28T09:48:17;8.60;;;6.17;;
705;SDS011;21234;48.690;9.016;2023-02-28T09:50:48;9.80;;;6.00;;
705;SDS011;21234;48.690;9.016;2023-02-28T09:53:19;9.90;;;6.60;;
705;SDS011;21234;48.690;9.016;2023-02-28T09:55:53;10.27;;;5.90;;
705;SDS011;21234;48.690;9.016;2023-02-28T09:58:26;10.10;;;6.63;;
705;SDS011;21234;48.690;9.016;2023-02-28T10:00:59;9.57;;;6.00;;
705;SDS011;21234;48.690;9.016;2023-02-28T10:03:35;8.40;;;6.50;;
705;SDS011;21234;48.690;9.016;2023-02-28T10:06:07;8.67;;;7.23;;
705;SDS011;21234;48.690;9.016;2023-02-28T10:08:40;9.67;;;5.80;;
705;SDS011;21234;48.690;9.016;2023-02-28T10:11:12;11.53;;;7.27;;
705;SDS011;21234;48.690;9.016;2023-02-28T10:13:46;9.30;;;6.57;;
705;SDS011;21234;48.690;9.016;2023-02-28T10:16:21;8.90;;;6.43;;
705;SDS011;21234;48.690;9.016;2023-02-28T10:18:54;9.60;;;7.40;;
705;SDS011;21234;48.690;9.016;2023-02-28T10:21:25;9.20;;;5.57;;
705;SDS011;21234;48.690;9.016;2023-02-28T10:23:59;10.13;;;7.20;;
705;SDS011;21234;48.690;9.016;2023-02-28T10:26:31;9.30;;;8.37;;
705;SDS011;21234;48.690;9.016;2023-02-28T10:29:00;12.20;;;7.00;;
705;SDS011;21234;48.690;9.016;2023-02-28T10:31:27;9.37;;;5.67;;
705;SDS011;21234;48.690;9.016;2023-02-28T10:33:56;11.23;;;8.23;;
705;SDS011;21234;48.690;9.016;2023-02-28T10:36:22;9.20;;;6.70;;
705;SDS011;21234;48.690;9.016;2023-02-28T10:38:49;9.07;;;7.90;;
705;SDS011;21234;48.690;9.016;2023-02-28T10:41:18;10.00;;;8.30;;
705;SDS011;21234;48.690;9.016;2023-02-28T10:43:53;9.00;;;7.10;;
705;SDS011;21234;48.690;9.016;2023-02-28T10:46:39;9.07;;;7.30;;
705;SDS011;21234;48.690;9.016;2023-02-28T10:49:12;8.33;;;6.10;;
705;SDS011;21234;48.690;9.016;2023-02-28T10:51:40;11.90;;;6.47;;
705;SDS011;21234;48.690;9.016;2023-02-28T10:54:14;7.33;;;5.97;;
705;SDS011;21234;48.690;9.016;2023-02-28T10:56:42;9.03;;;6.90;;
705;SDS011;21234;48.690;9.016;2023-02-28T10:59:22;9.37;;;6.67;;
705;SDS011;21234;48.690;9.016;2023-02-28T11:01:54;10.83;;;7.73;;
705;SDS011;21234;48.690;9.016;2023-02-28T11:04:33;7.53;;;6.67;;
705;SDS011;21234;48.690;9.016;2023-02-28T11:07:03;9.03;;;7.30;;
705;SDS011;21234;48.690;9.016;2023-02-28T11:09:33;7.23;;;5.60;;
705;SDS011;21234;48.690;9.016;2023-02-28T11:12:04;9.00;;;6.40;;
705;SDS011;21234;48.690;9.016;2023-02-28T11:14:35;7.40;;;6.47;;
705;SDS011;21234;48.690;9.016;2023-02-28T11:17:13;8.50;;;6.83;;
705;SDS011;21234;48.690;9.016;2023-02-28T11:19:47;7.87;;;5.80;;
705;SDS011;21234;48.690;9.016;2023-02-28T11:22:17;9.70;;;6.60;;
705;SDS011;21234;48.690;9.016;2023-02-28T11:24:47;8.33;;;7.40;;
705;SDS011;21234;48.690;9.016;2023-02-28T11:27:40;7.17;;;6.30;;
705;SDS011;21234;48.690;9.016;2023-02-28T11:30:27;11.97;;;8.93;;
705;SDS011;21234;48.690;9.016;2023-02-28T11:32:56;9.97;;;6.93;;
705;SDS011;21234;48.690;9.016;2023-02-28T11:35:26;11.20;;;7.93;;
705;SDS011;21234;48.690;9.016;2023-02-28T11:37:56;9.00;;;6.10;;
705;SDS011;21234;48.690;9.016;2023-02-28T11:40:25;10.43;;;6.77;;
705;SDS011;21234;48.690;9.016;2023-02-28T11:43:02;13.90;;;7.13;;
705;SDS011;21234;48.690;9.016;2023-02-28T11:45:46;8.17;;;7.07;;
705;SDS011;21234;48.690;9.016;2023-02-28T11:48:25;9.83;;;6.60;;
705;SDS011;21234;48.690;9.016;2023-02-28T11:51:02;8.93;;;6.87;;
705;SDS011;21234;48.690;9.016;2023-02-28T11:53:44;9.63;;;7.07;;
705;SDS011;21234;48.690;9.016;2023-02-28T11:56:26;8.63;;;6.10;;
705;SDS011;21234;48.690;9.016;2023-02-28T11:59:01;9.30;;;7.67;;
705;SDS011;21234;48.690;9.016;2023-02-28T12:01:39;9.70;;;8.30;;
705;SDS011;21234;48.690;9.016;2023-02-28T12:04:25;8.03;;;6.50;;
705;SDS011;21234;48.690;9.016;2023-02-28T12:07:03;12.53;;;8.20;;
705;SDS011;21234;48.690;9.016;2023-02-28T12:09:44;11.80;;;7.80;;
705;SDS011;21234;48.690;9.016;2023-02-28T12:12:28;9.00;;;7.87;;
705;SDS011;21234;48.690;9.016;2023-02-28T12:15:05;11.60;;;7.60;;
705;SDS011;21234;48.690;9.016;2023-02-28T12:17:52;12.97;;;8.77;;
705;SDS011;21234;48.690;9.016;2023-02-28T12:20:28;10.67;;;7.03;;
705;SDS011;21234;48.690;9.016;2023-02-28T12:23:06;14.23;;;9.67;;
705;SDS011;21234;48.690;9.016;2023-02-28T12:25:54;13.70;;;7.57;;
705;SDS011;21234;48.690;9.016;2023-02-28T12:28:29;11.00;;;8.13;;
705;SDS011;21234;48.690;9.016;2023-02-28T12:31:00;12.13;;;7.47;;
705;SDS011;21234;48.690;9.016;2023-02-28T12:33:33;10.10;;;7.50;;
705;SDS011;21234;48.690;9.016;2023-02-28T12:36:05;8.53;;;7.23;;
705;SDS011;21234;48.690;9.016;2023-02-28T12:38:39;10.83;;;6.30;;
705;SDS011;21234;48.690;9.016;2023-02-28T12:41:10;7.07;;;6.37;;
705;SDS011;21234;48.690;9.016;2023-02-28T12:43:40;9.07;;;6.40;;
705;SDS011;21234;48.690;9.016;2023-02-28T12:46:11;7.50;;;6.30;;
705;SDS011;21234;48.690;9.016;2023-02-28T12:48:43;10.17;;;7.60;;
705;SDS011;21234;48.690;9.016;2023-02-28T12:51:12;12.40;;;7.07;;
705;SDS011;21234;48.690;9.016;2023-02-28T12:53:52;9.10;;;6.97;;
705;SDS011;21234;48.690;9.016;2023-02-28T12:56:30;6.83;;;6.07;;
705;SDS011;21234;48.690;9.016;2023-02-28T12:59:07;7.20;;;6.50;;
705;SDS011;21234;48.690;9.016;2023-02-28T13:01:43;8.53;;;6.97;;
705;SDS011;21234;48.690;9.016;2023-02-28T13:07:19;8.40;;;6.77;;
705;SDS011;21234;48.690;9.016;2023-02-28T13:10:06;11.80;;;8.30;;
705;SDS011;21234;48.690;9.016;2023-02-28T13:12:34;8.07;;;6.00;;
705;SDS011;21234;48.690;9.016;2023-02-28T13:15:04;10.03;;;6.70;;
705;SDS011;21234;48.690;9.016;2023-02-28T13:17:37;7.27;;;6.30;;
705;SDS011;21234;48.690;9.016;2023-02-28T13:20:13;9.77;;;7.87;;
705;SDS011;21234;48.690;9.016;2023-02-28T13:22:43;9.10;;;7.03;;
705;SDS011;21234;48.690;9.016;2023-02-28T13:34:40;7.90;;;7.10;;
705;SDS011;21234;48.690;9.016;2023-02-28T13:40:06;13.30;;;7.03;;
705;SDS011;21234;48.690;9.016;2023-02-28T13:42:48;12.00;;;7.00;;
705;SDS011;21234;48.690;9.016;2023-02-28T13:45:23;11.70;;;7.40;;
705;SDS011;21234;48.690;9.016;2023-02-28T13:47:52;11.77;;;8.97;;
705;SDS011;21234;48.690;9.016;2023-02-28T13:50:23;13.93;;;7.30;;
705;SDS011;21234;48.690;9.016;2023-02-28T13:52:57;11.47;;;7.37;;
705;SDS011;21234;48.690;9.016;2023-02-28T13:55:58;7.23;;;6.33;;
705;SDS011;21234;48.690;9.016;2023-02-28T13:58:40;8.60;;;6.80;;
705;SDS011;21234;48.690;9.016;2023-02-28T14:01:16;9.40;;;6.17;;
705;SDS011;21234;48.690;9.016;2023-02-28T14:04:01;8.47;;;7.13;;
705;SDS011;21234;48.690;9.016;2023-02-28T14:06:47;10.00;;;9.00;;
705;SDS011;21234;48.690;9.016;2023-02-28T14:09:18;9.63;;;7.73;;
705;SDS011;21234;48.690;9.016;2023-02-28T14:11:49;8.73;;;7.13;;
705;SDS011;21234;48.690;9.016;2023-02-28T14:17:20;11.00;;;7.53;;
705;SDS011;21234;48.690;9.016;2023-02-28T14:19:47;10.17;;;7.10;;
705;SDS011;21234;48.690;9.016;2023-02-28T14:22:20;10.67;;;7.67;;
705;SDS011;21234;48.690;9.016;2023-02-28T14:25:17;8.03;;;7.23;;
705;SDS011;21234;48.690;9.016;2023-02-28T14:27:49;6.93;;;6.00;;
705;SDS011;21234;48.690;9.016;2023-02-28T14:30:40;9.40;;;7.50;;
705;SDS011;21234;48.690;9.016;2023-02-28T14:33:24;7.90;;;6.53;;
705;SDS011;21234;48.690;9.016;2023-02-28T14:36:03;8.07;;;6.70;;
705;SDS011;21234;48.690;9.016;2023-02-28T14:38:35;7.87;;;6.50;;
705;SDS011;21234;48.690;9.016;2023-02-28T14:41:12;9.83;;;6.70;;
705;SDS011;21234;48.690;9.016;2023-02-28T14:43:48;7.67;;;6.13;;
705;SDS011;21234;48.690;9.016;2023-02-28T14:46:16;8.40;;;6.83;;
705;SDS011;21234;48.690;9.016;2023-02-28T14:48:44;10.10;;;7.50;;
705;SDS011;21234;48.690;9.016;2023-02-28T14:51:12;11.17;;;8.30;;
705;SDS011;21234;48.690;9.016;2023-02-28T14:53:49;8.20;;;6.07;;
705;SDS011;21234;48.690;9.016;2023-02-28T14:56:21;9.37;;;6.80;;
705;SDS011;21234;48.690;9.016;2023-02-28T14:58:51;8.50;;;7.33;;
705;SDS011;21234;48.690;9.016;2023-02-28T15:01:19;8.53;;;6.50;;
705;SDS011;21234;48.690;9.016;2023-02-28T15:03:47;9.13;;;7.00;;
705;SDS011;21234;48.690;9.016;2023-02-28T15:06:15;10.00;;;6.87;;
705;SDS011;21234;48.690;9.016;2023-02-28T15:08:43;6.97;;;6.20;;
705;SDS011;21234;48.690;9.016;2023-02-28T15:11:14;8.00;;;7.30;;
705;SDS011;21234;48.690;9.016;2023-02-28T15:13:44;7.50;;;6.30;;
705;SDS011;21234;48.690;9.016;2023-02-28T15:16:15;6.77;;;6.07;;
705;SDS011;21234;48.690;9.016;2023-02-28T15:18:44;9.90;;;6.80;;
705;SDS011;21234;48.690;9.016;2023-02-28T15:21:15;9.93;;;7.40;;
705;SDS011;21234;48.690;9.016;2023-02-28T15:23:46;7.80;;;7.00;;
705;SDS011;21234;48.690;9.016;2023-02-28T15:26:18;13.73;;;8.30;;
705;SDS011;21234;48.690;9.016;2023-02-28T15:28:47;6.60;;;5.80;;
705;SDS011;21234;48.690;9.016;2023-02-28T15:31:20;9.63;;;7.17;;
705;SDS011;21234;48.690;9.016;2023-02-28T15:33:52;9.60;;;7.33;;
705;SDS011;21234;48.690;9.016;2023-02-28T15:36:20;8.00;;;6.30;;
705;SDS011;21234;48.690;9.016;2023-02-28T15:38:53;8.43;;;7.37;;
705;SDS011;21234;48.690;9.016;2023-02-28T15:41:25;8.13;;;7.00;;
705;SDS011;21234;48.690;9.016;2023-02-28T15:46:44;8.80;;;6.60;;
705;SDS011;21234;48.690;9.016;2023-02-28T15:49:21;8.63;;;7.43;;
705;SDS011;21234;48.690;9.016;2023-02-28T15:51:49;8.90;;;7.90;;
705;SDS011;21234;48.690;9.016;2023-02-28T15:54:18;9.83;;;7.40;;
705;SDS011;21234;48.690;9.016;2023-02-28T15:56:49;10.63;;;7.67;;